Time;durP1;ratioP1;P1;durP2;ratioP2;P2;SDS_P1;SDS_P2;PMS_P1;PMS_P2;Temp;Humidity;BMP_temperature;BMP_pressure;BME280_temperature;BME280_humidity;BME280_pressure;Samples;Min_cycle;Max_cycle;Signal;HPM_P1;HPM_P2
2021/01/08 00:01:56;;;;;;;2.62;2.10;;;;;;;6.28;72.78;100339.53;1785933;78;20927;-73
2021/01/08 00:04:26;;;;;;;2.12;1.92;;;;;;;6.24;72.22;100342.72;1786001;78;21377;-73
2021/01/08 00:06:55;;;;;;;3.00;2.35;;;;;;;6.17;71.66;100352.58;1787455;78;20994;-74
2021/01/08 00:09:25;;;;;;;4.22;2.50;;;;;;;6.10;70.29;100372.47;1786157;78;21021;-76
2021/01/08 00:11:55;;;;;;;2.77;1.72;;;;;;;5.98;70.02;100388.16;1787485;78;21154;-75
2021/01/08 00:14:24;;;;;;;1.62;1.32;;;;;;;5.90;69.52;100401.49;1787372;78;21198;-74
2021/01/08 00:16:53;;;;;;;3.25;0.88;;;;;;;5.79;68.55;100404.56;1787435;78;20994;-73
2021/01/08 00:19:22;;;;;;;1.80;0.80;;;;;;;5.67;68.64;100403.81;1787572;78;21017;-75
2021/01/08 00:21:51;;;;;;;1.92;0.68;;;;;;;5.54;68.96;100416.48;1787366;78;20942;-74
2021/01/08 00:24:20;;;;;;;2.02;1.20;;;;;;;5.46;69.51;100409.92;1787418;78;21174;-74
2021/01/08 00:26:54;;;;;;;2.30;1.40;;;;;;;5.40;69.54;100413.61;1787374;78;20970;-74
2021/01/08 00:29:22;;;;;;;2.90;1.30;;;;;;;5.35;69.81;100421.60;1786178;78;21014;-73
2021/01/08 00:31:51;;;;;;;2.17;1.30;;;;;;;5.31;69.92;100421.80;1787332;78;20939;-73
2021/01/08 00:34:21;;;;;;;3.77;1.50;;;;;;;5.31;70.21;100423.09;1787477;78;21495;-72
2021/01/08 00:36:54;;;;;;;2.22;1.55;;;;;;;5.31;70.21;100429.13;1786042;78;21173;-72
2021/01/08 00:39:24;;;;;;;2.77;1.67;;;;;;;5.34;70.29;100429.48;1787162;78;21013;-72
2021/01/08 00:41:53;;;;;;;2.02;1.52;;;;;;;5.34;70.47;100421.22;1787377;78;20950;-72
2021/01/08 00:44:22;;;;;;;1.90;1.22;;;;;;;5.38;70.57;100424.52;1787293;78;21061;-74
2021/01/08 00:46:51;;;;;;;4.33;2.20;;;;;;;5.40;70.13;100424.88;1784507;79;21025;-73
2021/01/08 00:49:20;;;;;;;5.00;2.10;;;;;;;5.42;69.90;100427.86;1784581;79;20990;-74
2021/01/08 00:51:49;;;;;;;4.05;1.72;;;;;;;5.42;69.93;100440.39;1784529;79;21374;-74
2021/01/08 00:54:18;;;;;;;2.45;1.02;;;;;;;5.41;69.88;100438.72;1784496;79;21528;-74
2021/01/08 00:56:51;;;;;;;1.55;1.42;;;;;;;5.38;70.06;100438.83;1784530;79;20940;-74
2021/01/08 00:59:21;;;;;;;1.75;1.10;;;;;;;5.38;70.20;100442.30;1761332;79;21104;-74
2021/01/08 01:01:50;;;;;;;1.05;0.90;;;;;;;5.40;70.02;100437.02;1783201;79;22101;-76
2021/01/08 01:04:20;;;;;;;1.45;1.12;;;;;;;5.39;70.16;100436.17;1783132;79;20947;-74
2021/01/08 01:06:49;;;;;;;1.62;0.90;;;;;;;5.39;70.35;100458.27;1783133;79;20948;-75
2021/01/08 01:09:18;;;;;;;1.27;0.80;;;;;;;5.43;70.33;100464.20;1784625;79;21444;-73
2021/01/08 01:11:48;;;;;;;1.35;1.02;;;;;;;5.47;70.06;100468.38;1784582;79;20939;-74
2021/01/08 01:14:17;;;;;;;1.07;1.00;;;;;;;5.46;69.93;100458.87;1783239;77;22093;-75
2021/01/08 01:16:47;;;;;;;1.27;1.17;;;;;;;5.46;69.90;100458.87;1784523;79;21400;-75
2021/01/08 01:19:16;;;;;;;1.70;1.30;;;;;;;5.44;69.64;100453.34;1784586;79;21507;-74
2021/01/08 01:21:45;;;;;;;2.52;2.00;;;;;;;5.42;69.35;100460.36;1783117;79;21089;-75
2021/01/08 01:24:14;;;;;;;2.72;1.98;;;;;;;5.40;69.48;100473.41;1784595;79;21010;-73
2021/01/08 01:26:42;;;;;;;2.05;1.85;;;;;;;5.38;69.44;100458.33;1784523;79;21151;-75
2021/01/08 01:29:11;;;;;;;3.55;2.10;;;;;;;5.39;69.42;100472.58;1784534;79;20951;-72
2021/01/08 01:31:40;;;;;;;3.92;2.02;;;;;;;5.42;69.53;100478.10;1784452;79;21360;-74
2021/01/08 01:34:10;;;;;;;2.83;2.15;;;;;;;5.44;69.61;100479.35;1811734;79;20903;-74
2021/01/08 01:36:39;;;;;;;2.25;1.72;;;;;;;5.47;69.67;100484.41;1784564;79;21487;-74
2021/01/08 01:39:07;;;;;;;0.85;0.80;;;;;;;5.49;69.26;100474.80;1755239;80;21150;-74
2021/01/08 01:41:37;;;;;;;1.42;1.00;;;;;;;5.48;69.10;100476.55;1753591;80;21360;-74
2021/01/08 01:44:07;;;;;;;0.90;0.90;;;;;;;5.48;68.91;100474.42;1753580;80;20950;-73
2021/01/08 01:46:35;;;;;;;1.02;1.00;;;;;;;5.47;68.68;100483.11;1755557;80;21041;-73
2021/01/08 01:49:04;;;;;;;0.70;0.70;;;;;;;5.45;68.78;100477.13;1756240;80;21013;-74
2021/01/08 01:51:33;;;;;;;1.07;0.85;;;;;;;5.42;68.96;100489.80;1756349;80;21574;-73
2021/01/08 01:54:02;;;;;;;0.68;0.68;;;;;;;5.40;69.13;100487.72;1756148;80;21342;-74
2021/01/08 01:56:30;;;;;;;1.95;0.60;;;;;;;5.40;69.30;100487.72;1756181;80;21017;-73
2021/01/08 01:58:59;;;;;;;2.08;0.68;;;;;;;5.40;69.47;100495.52;1756183;80;20946;-73
2021/01/08 02:01:27;;;;;;;1.40;0.80;;;;;;;5.39;69.34;100502.94;1756281;80;21077;-72
2021/01/08 02:03:57;;;;;;;0.57;0.57;;;;;;;5.37;69.24;100500.86;1756279;80;20993;-71
2021/01/08 02:06:33;;;;;;;1.00;0.90;;;;;;;5.36;68.97;100503.92;1756386;80;20997;-73
2021/01/08 02:09:09;;;;;;;1.50;0.80;;;;;;;5.37;68.89;100507.36;1756370;80;21017;-72
2021/01/08 02:11:47;;;;;;;1.10;1.05;;;;;;;5.37;67.82;100503.45;1756321;80;20939;-73
2021/01/08 02:14:28;;;;;;;2.47;1.40;;;;;;;5.35;67.18;100525.61;1756444;80;20998;-73
2021/01/08 02:16:57;;;;;;;1.57;1.42;;;;;;;5.32;67.17;100535.30;1756292;80;21423;-72
2021/01/08 02:19:46;;;;;;;3.77;2.45;;;;;;;5.29;67.42;100531.50;1756225;80;20998;-73
2021/01/08 02:22:25;;;;;;;3.15;1.65;;;;;;;5.26;67.50;100528.58;1756484;80;20973;-72
2021/01/08 02:25:10;;;;;;;2.27;1.20;;;;;;;5.22;67.45;100534.80;1756358;80;21014;-73
2021/01/08 02:27:39;;;;;;;2.15;1.47;;;;;;;5.23;67.45;100538.27;1756743;80;20966;-74
2021/01/08 02:30:09;;;;;;;2.65;1.60;;;;;;;5.21;67.82;100543.52;1756393;79;21109;-74
2021/01/08 02:32:38;;;;;;;1.40;1.30;;;;;;;5.20;67.90;100531.41;1756343;80;20989;-73
2021/01/08 02:35:09;;;;;;;1.47;1.37;;;;;;;5.18;67.73;100530.20;1756385;79;20918;-74
2021/01/08 02:37:42;;;;;;;2.02;1.92;;;;;;;5.16;67.84;100537.20;1756387;80;21507;-74
2021/01/08 02:40:15;;;;;;;2.25;1.57;;;;;;;5.14;67.93;100543.38;1756401;80;20926;-73
2021/01/08 02:42:45;;;;;;;2.40;1.72;;;;;;;5.09;68.14;100550.48;1756294;80;21227;-73
2021/01/08 02:45:14;;;;;;;1.12;1.12;;;;;;;5.04;68.43;100554.55;1756380;80;21602;-72
2021/01/08 02:47:43;;;;;;;1.98;1.77;;;;;;;4.96;68.84;100559.22;1763810;80;20954;-73
2021/01/08 02:50:14;;;;;;;2.40;1.82;;;;;;;4.87;69.25;100559.11;1763895;80;20922;-74
2021/01/08 02:52:47;;;;;;;2.72;1.85;;;;;;;4.76;69.76;100560.80;1763967;80;20998;-74
2021/01/08 02:55:24;;;;;;;1.32;0.95;;;;;;;4.68;70.08;100555.48;1763752;80;21005;-73
2021/01/08 02:57:52;;;;;;;2.52;1.32;;;;;;;4.62;70.38;100550.52;1790418;79;21092;-73
2021/01/08 03:00:21;;;;;;;2.12;1.72;;;;;;;4.56;70.73;100551.59;1763764;80;20938;-73
2021/01/08 03:02:50;;;;;;;2.20;2.00;;;;;;;4.51;70.91;100552.19;1755842;80;20903;-73
2021/01/08 03:05:20;;;;;;;2.92;2.50;;;;;;;4.48;71.10;100556.21;1763850;80;21376;-73
2021/01/08 03:07:49;;;;;;;2.85;2.12;;;;;;;4.46;71.14;100564.50;1763696;80;21418;-72
2021/01/08 03:10:17;;;;;;;3.95;2.70;;;;;;;4.43;71.27;100568.06;1738970;80;20962;-73
2021/01/08 03:12:54;;;;;;;2.45;2.00;;;;;;;4.38;71.33;100572.58;1763813;80;21158;-73
2021/01/08 03:15:24;;;;;;;1.72;1.60;;;;;;;4.34;71.17;100580.07;1763868;80;21617;-73
2021/01/08 03:17:52;;;;;;;1.70;1.60;;;;;;;4.28;71.35;100568.59;1763703;80;21021;-74
2021/01/08 03:20:22;;;;;;;2.10;1.75;;;;;;;4.25;71.17;100573.45;1763776;79;21381;-73
2021/01/08 03:22:51;;;;;;;1.90;1.80;;;;;;;4.25;71.03;100580.39;1763677;80;20950;-73
2021/01/08 03:25:19;;;;;;;1.87;1.77;;;;;;;4.25;71.09;100586.88;1763789;80;20942;-73
2021/01/08 03:27:49;;;;;;;2.65;1.95;;;;;;;4.27;71.11;100588.52;1763701;80;20950;-74
2021/01/08 03:30:20;;;;;;;2.22;2.02;;;;;;;4.31;71.05;100591.41;1763734;80;20938;-74
2021/01/08 03:32:49;;;;;;;2.15;2.00;;;;;;;4.36;70.85;100591.25;1763737;80;20928;-73
2021/01/08 03:35:19;;;;;;;4.33;2.92;;;;;;;4.37;70.90;100594.23;1763578;80;21032;-74
2021/01/08 03:37:48;;;;;;;5.25;3.58;;;;;;;4.39;70.93;100595.03;1763686;80;20915;-72
2021/01/08 03:40:16;;;;;;;4.20;2.70;;;;;;;4.37;71.14;100598.12;1763700;80;21006;-73
2021/01/08 03:42:44;;;;;;;4.45;3.50;;;;;;;4.36;71.36;100595.98;1763913;80;21022;-73
2021/01/08 03:45:14;;;;;;;2.98;2.60;;;;;;;4.38;71.49;100592.05;1763708;80;21160;-72
2021/01/08 03:47:42;;;;;;;4.83;2.98;;;;;;;4.40;71.61;100590.67;1753454;80;21046;-74
2021/01/08 03:50:11;;;;;;;8.03;3.87;;;;;;;4.41;71.79;100591.93;1753548;80;20943;-73
2021/01/08 03:52:40;;;;;;;3.60;3.02;;;;;;;4.43;71.92;100591.42;1753475;80;21021;-73
2021/01/08 03:55:10;;;;;;;4.28;3.50;;;;;;;4.43;72.04;100588.83;1753444;80;20954;-72
2021/01/08 03:57:38;;;;;;;3.42;3.12;;;;;;;4.44;71.95;100589.22;1753582;80;20950;-74
2021/01/08 04:00:09;;;;;;;2.75;2.55;;;;;;;4.46;71.88;100591.77;1753503;80;20970;-72
2021/01/08 04:02:37;;;;;;;5.47;2.83;;;;;;;4.46;71.70;100594.36;1753596;80;20955;-73
2021/01/08 04:05:08;;;;;;;3.15;2.90;;;;;;;4.44;71.72;100602.20;1753381;80;21486;-73
2021/01/08 04:07:36;;;;;;;3.20;3.00;;;;;;;4.43;71.75;100602.27;1753499;80;20947;-72
2021/01/08 04:10:07;;;;;;;3.65;2.35;;;;;;;4.44;71.67;100606.09;1753512;80;21280;-72
2021/01/08 04:12:36;;;;;;;2.17;1.98;;;;;;;4.45;71.46;100601.77;1753458;80;20990;-72
2021/01/08 04:15:08;;;;;;;3.22;2.65;;;;;;;4.45;71.38;100609.10;1753485;80;21006;-74
2021/01/08 04:17:36;;;;;;;4.17;2.87;;;;;;;4.47;71.52;100602.53;1753526;80;20947;-72
2021/01/08 04:20:07;;;;;;;3.67;2.80;;;;;;;4.48;71.50;100611.58;1753666;80;21376;-72
2021/01/08 04:22:36;;;;;;;5.05;3.17;;;;;;;4.51;71.42;100624.91;1753376;80;21459;-73
2021/01/08 04:25:07;;;;;;;3.92;3.25;;;;;;;4.52;71.21;100624.86;1753357;80;21139;-73
2021/01/08 04:27:36;;;;;;;3.52;3.22;;;;;;;4.51;71.01;100624.91;1753487;80;21010;-72
2021/01/08 04:30:06;;;;;;;6.70;3.20;;;;;;;4.49;71.04;100631.47;1753449;80;21018;-72
2021/01/08 04:32:35;;;;;;;6.03;3.10;;;;;;;4.47;71.12;100629.38;1753522;80;20994;-72
2021/01/08 04:35:06;;;;;;;3.60;3.27;;;;;;;4.43;71.04;100630.83;1753479;80;21652;-74
2021/01/08 04:37:34;;;;;;;4.45;3.85;;;;;;;4.39;71.18;100628.78;1753561;80;20966;-73
2021/01/08 04:40:08;;;;;;;3.10;2.90;;;;;;;4.34;71.33;100627.64;1753637;80;21543;-73
2021/01/08 04:42:36;;;;;;;3.52;3.22;;;;;;;4.31;71.37;100638.56;1753494;80;21091;-74
2021/01/08 04:45:08;;;;;;;6.05;3.10;;;;;;;4.30;71.36;100635.59;1752980;80;20943;-73
2021/01/08 04:47:37;;;;;;;5.28;3.58;;;;;;;4.31;71.35;100642.45;1755796;79;21170;-75
2021/01/08 04:50:07;;;;;;;4.30;3.90;;;;;;;4.29;71.10;100643.83;1756151;80;20973;-73
2021/01/08 04:52:36;;;;;;;7.15;4.97;;;;;;;4.25;71.21;100638.34;1756183;80;21037;-72
2021/01/08 04:55:08;;;;;;;5.08;4.00;;;;;;;4.19;71.16;100636.40;1756222;80;21014;-73
2021/01/08 04:57:37;;;;;;;6.78;5.10;;;;;;;4.10;71.26;100640.14;1756368;80;20966;-73
2021/01/08 05:00:07;;;;;;;6.10;4.60;;;;;;;4.02;71.40;100649.45;1756297;80;21159;-73
2021/01/08 05:02:37;;;;;;;5.58;4.92;;;;;;;3.94;71.58;100664.45;1756109;80;21657;-73
2021/01/08 05:05:09;;;;;;;7.03;5.25;;;;;;;3.87;71.86;100668.14;1786986;80;21031;-73
2021/01/08 05:07:37;;;;;;;6.10;4.67;;;;;;;3.80;72.06;100666.19;1756317;80;20962;-72
2021/01/08 05:10:09;;;;;;;6.00;5.42;;;;;;;3.74;72.14;100676.74;1756325;80;20970;-73
2021/01/08 05:12:41;;;;;;;6.70;5.97;;;;;;;3.68;72.26;100679.06;1756256;80;21074;-72
2021/01/08 05:15:12;;;;;;;5.80;5.25;;;;;;;3.62;72.38;100676.64;1756163;80;20962;-72
2021/01/08 05:17:41;;;;;;;9.50;5.85;;;;;;;3.53;72.58;100687.30;1756358;80;20954;-73
2021/01/08 05:20:11;;;;;;;10.18;6.08;;;;;;;3.42;72.80;100689.36;1756207;80;20955;-71
2021/01/08 05:22:40;;;;;;;8.58;5.62;;;;;;;3.31;73.08;100695.73;1756293;80;21551;-73
2021/01/08 05:25:11;;;;;;;7.87;5.62;;;;;;;3.23;73.36;100704.16;1756347;80;21482;-73
2021/01/08 05:27:39;;;;;;;7.67;6.05;;;;;;;3.16;73.66;100714.72;1755980;80;20962;-72
2021/01/08 05:30:28;;;;;;;6.85;5.70;;;;;;;3.10;73.99;100726.12;1756230;80;20935;-73
2021/01/08 05:32:59;;;;;;;5.50;4.92;;;;;;;3.03;74.30;100711.64;1756163;80;21371;-73
2021/01/08 05:35:31;;;;;;;10.75;7.87;;;;;;;2.98;74.56;100719.53;1756267;80;20962;-72
2021/01/08 05:38:06;;;;;;;15.48;9.65;;;;;;;2.92;74.97;100720.15;1756349;80;21546;-73
2021/01/08 05:40:41;;;;;;;6.72;5.97;;;;;;;2.84;75.18;100725.06;1756246;80;21003;-72
2021/01/08 05:43:10;;;;;;;7.70;6.45;;;;;;;2.79;75.29;100729.97;1756385;80;20910;-73
2021/01/08 05:46:55;;;;;;;8.55;5.65;;;;;;;2.77;75.63;100735.19;1890197;76;22006;-72
2021/01/08 05:49:25;;;;;;;7.42;5.97;;;;;;;2.68;75.83;100735.42;1800342;77;20937;-74
2021/01/08 05:51:55;;;;;;;7.37;5.60;;;;;;;2.66;75.87;100734.61;1801624;77;21028;-72
2021/01/08 05:54:26;;;;;;;6.53;5.55;;;;;;;2.63;75.93;100747.19;1827656;77;20954;-73
2021/01/08 05:56:55;;;;;;;6.72;5.97;;;;;;;2.59;75.93;100748.16;1802085;77;20898;-73
2021/01/08 05:59:25;;;;;;;7.47;5.42;;;;;;;2.58;75.99;100754.23;1801339;77;20906;-74
2021/01/08 06:01:57;;;;;;;8.48;5.40;;;;;;;2.56;76.05;100769.41;1828106;77;20907;-74
2021/01/08 06:04:34;;;;;;;6.25;5.58;;;;;;;2.51;76.18;100770.78;1827749;77;20955;-74
2021/01/08 06:07:16;;;;;;;6.30;5.70;;;;;;;2.48;76.33;100775.59;1827474;77;20966;-74
2021/01/08 06:09:48;;;;;;;14.43;9.90;;;;;;;2.47;76.47;100775.20;1827646;77;20934;-73
2021/01/08 06:12:17;;;;;;;7.50;6.15;;;;;;;2.48;76.47;100778.63;1802143;77;21091;-73
2021/01/08 06:14:46;;;;;;;6.12;5.53;;;;;;;2.44;76.43;100789.94;1827066;77;21400;-74
2021/01/08 06:17:18;;;;;;;7.40;6.30;;;;;;;2.41;76.47;100798.63;1827647;77;21395;-73
2021/01/08 06:19:48;;;;;;;7.35;6.30;;;;;;;2.38;76.51;100798.72;1860873;76;20993;-74
2021/01/08 06:22:17;;;;;;;8.03;6.10;;;;;;;2.38;76.53;100800.43;1827283;77;21063;-73
2021/01/08 06:24:46;;;;;;;10.25;6.28;;;;;;;2.38;76.53;100799.14;1801416;77;21006;-74
2021/01/08 06:27:14;;;;;;;10.35;7.85;;;;;;;2.38;76.65;100816.83;1767043;77;20930;-73
2021/01/08 06:29:43;;;;;;;8.38;5.75;;;;;;;2.39;76.59;100817.22;1801105;77;21253;-75
2021/01/08 06:32:16;;;;;;;7.08;6.08;;;;;;;2.43;76.51;100818.86;1827488;77;20930;-74
2021/01/08 06:34:46;;;;;;;9.05;6.67;;;;;;;2.48;76.35;100825.22;1802120;77;20938;-73
2021/01/08 06:37:18;;;;;;;9.93;7.60;;;;;;;2.50;76.35;100819.56;1827373;77;21502;-73
2021/01/08 06:39:46;;;;;;;10.98;7.95;;;;;;;2.56;76.32;100822.02;1827562;77;21059;-73
2021/01/08 06:42:28;;;;;;;13.83;10.43;;;;;;;2.59;76.22;100831.45;1827159;77;21175;-73
2021/01/08 06:44:59;;;;;;;13.05;9.95;;;;;;;2.62;76.12;100830.06;1827174;77;21038;-75
2021/01/08 06:47:28;;;;;;;16.62;9.90;;;;;;;2.66;76.07;100829.95;1830214;77;20982;-75
2021/01/08 06:49:58;;;;;;;10.88;8.38;;;;;;;2.70;75.96;100834.17;1829865;77;21033;-74
2021/01/08 06:52:27;;;;;;;10.85;7.65;;;;;;;2.75;75.75;100831.48;1803546;77;20994;-76
2021/01/08 06:54:57;;;;;;;10.30;7.30;;;;;;;2.80;75.66;100840.42;1803806;77;21168;-75
2021/01/08 06:57:25;;;;;;;8.83;7.17;;;;;;;2.84;75.54;100848.53;1829789;77;21013;-77
2021/01/08 07:00:04;;;;;;;9.75;7.22;;;;;;;2.85;75.33;100845.07;1760852;77;20942;-75
2021/01/08 07:02:33;;;;;;;9.23;6.85;;;;;;;2.87;75.24;100843.30;1829538;77;20902;-75
2021/01/08 07:05:03;;;;;;;14.23;8.45;;;;;;;2.90;75.08;100848.39;1803144;77;21530;-75
2021/01/08 07:07:33;;;;;;;21.45;13.90;;;;;;;2.93;75.09;100860.41;1829543;77;21230;-75
2021/01/08 07:10:03;;;;;;;9.85;6.85;;;;;;;2.92;75.09;100860.86;1803290;77;21029;-75
2021/01/08 07:12:32;;;;;;;10.00;7.50;;;;;;;2.95;74.88;100864.66;1829544;77;20946;-73
2021/01/08 07:15:01;;;;;;;8.98;7.47;;;;;;;2.93;74.80;100870.32;1802937;77;20942;-74
2021/01/08 07:17:32;;;;;;;11.75;7.97;;;;;;;2.94;74.76;100888.03;1803314;77;20963;-74
2021/01/08 07:20:04;;;;;;;13.35;8.50;;;;;;;2.93;74.67;100889.74;1858224;77;21371;-76
2021/01/08 07:22:39;;;;;;;11.38;7.83;;;;;;;2.90;74.61;100888.09;1829545;77;20914;-76
2021/01/08 07:25:13;;;;;;;10.65;8.85;;;;;;;2.91;74.63;100886.34;1829621;77;20970;-76
2021/01/08 07:27:44;;;;;;;11.12;7.90;;;;;;;2.90;74.59;100890.67;1829300;77;20930;-75
2021/01/08 07:30:13;;;;;;;11.33;7.62;;;;;;;2.90;74.65;100897.15;1829645;77;20930;-76
2021/01/08 07:32:48;;;;;;;10.82;8.03;;;;;;;2.92;74.55;100902.30;1829551;77;21392;-74
2021/01/08 07:35:29;;;;;;;9.43;7.90;;;;;;;2.95;74.54;100906.11;1829534;77;21029;-76
2021/01/08 07:38:09;;;;;;;15.53;8.75;;;;;;;3.01;74.36;100911.59;1829418;77;21001;-75
2021/01/08 07:40:40;;;;;;;10.28;7.87;;;;;;;3.05;74.31;100906.75;1829529;77;20938;-74
2021/01/08 07:43:10;;;;;;;10.90;7.95;;;;;;;3.04;74.10;100914.10;1829437;77;21589;-75
2021/01/08 07:45:57;;;;;;;11.45;7.72;;;;;;;3.02;74.02;100907.66;1821958;78;22164;-76
2021/01/08 07:48:40;;;;;;;13.35;8.63;;;;;;;3.05;73.96;100903.71;1802208;78;21053;-78
2021/01/08 07:51:12;;;;;;;10.88;7.90;;;;;;;3.07;73.99;100903.23;1802153;78;20950;-75
2021/01/08 07:53:46;;;;;;;11.25;8.03;;;;;;;3.12;73.93;100909.59;1802136;78;21483;-75
2021/01/08 07:56:23;;;;;;;10.40;7.40;;;;;;;3.15;73.84;100907.38;1802236;78;27019;-73
2021/01/08 07:59:09;;;;;;;16.93;8.75;;;;;;;3.21;73.85;100908.52;1802008;78;20989;-75
2021/01/08 08:01:36;;;;;;;13.18;9.30;;;;;;;3.28;73.74;100900.54;1802211;78;21654;-74
2021/01/08 08:04:10;;;;;;;16.17;10.03;;;;;;;3.35;73.50;100896.50;1802126;78;21470;-75
2021/01/08 08:06:39;;;;;;;13.80;9.90;;;;;;;3.39;73.19;100900.72;1802044;78;20993;-74
2021/01/08 08:09:20;;;;;;;12.40;9.35;;;;;;;3.41;73.00;100906.27;1802304;78;20922;-75
2021/01/08 08:11:51;;;;;;;12.28;9.33;;;;;;;3.46;72.74;100906.99;1832365;77;22846;-73
2021/01/08 08:14:20;;;;;;;13.55;7.65;;;;;;;3.51;72.57;100910.34;1802113;78;20970;-74
2021/01/08 08:16:49;;;;;;;13.35;9.08;;;;;;;3.58;72.54;100917.93;1802040;78;20961;-73
2021/01/08 08:19:18;;;;;;;10.90;7.70;;;;;;;3.63;72.58;100913.05;1802028;78;21435;-76
2021/01/08 08:21:50;;;;;;;19.37;13.13;;;;;;;3.71;72.25;100916.30;1802208;78;20969;-74
2021/01/08 08:24:25;;;;;;;12.30;9.63;;;;;;;3.79;72.09;100909.59;1802309;78;21980;-74
2021/01/08 08:26:52;;;;;;;17.17;10.75;;;;;;;3.85;71.53;100912.47;1802183;78;21017;-73
2021/01/08 08:29:43;;;;;;;15.38;12.07;;;;;;;3.90;71.41;100910.59;1831083;78;21392;-75
2021/01/08 08:32:11;;;;;;;21.70;15.55;;;;;;;3.92;71.54;100910.11;1801983;78;20958;-76
2021/01/08 08:34:40;;;;;;;19.75;12.25;;;;;;;3.95;71.23;100907.41;1801539;78;21586;-74
2021/01/08 08:37:10;;;;;;;16.67;11.28;;;;;;;3.99;71.19;100908.19;1802605;78;21011;-75
2021/01/08 08:39:40;;;;;;;29.87;20.37;;;;;;;4.04;70.94;100907.61;1802041;78;21451;-75
2021/01/08 08:42:11;;;;;;;13.95;9.65;;;;;;;4.09;70.77;100909.19;1802218;78;21033;-75
2021/01/08 08:44:46;;;;;;;30.20;16.48;;;;;;;4.12;70.35;100906.50;1802310;78;21080;-74
2021/01/08 08:47:15;;;;;;;50.15;27.42;;;;;;;4.15;70.49;100914.64;1821094;77;21451;-75
2021/01/08 08:49:46;;;;;;;14.70;10.45;;;;;;;4.19;70.40;100919.31;1827086;77;22170;-75
2021/01/08 08:52:27;;;;;;;19.62;12.58;;;;;;;4.24;69.90;100918.27;1826908;77;20950;-75
2021/01/08 08:54:56;;;;;;;42.83;23.27;;;;;;;4.27;69.56;100921.21;1803285;77;21510;-76
2021/01/08 08:57:27;;;;;;;30.02;16.87;;;;;;;4.24;69.42;100926.05;1826971;77;20907;-75
2021/01/08 08:59:56;;;;;;;30.43;16.05;;;;;;;4.24;69.22;100931.23;1826954;77;20907;-76
2021/01/08 09:02:28;;;;;;;20.23;12.85;;;;;;;4.22;68.97;100925.24;1826410;77;21387;-76
2021/01/08 09:05:10;;;;;;;31.97;19.25;;;;;;;4.22;69.00;100920.05;1847120;76;22901;-73
2021/01/08 09:07:52;;;;;;;16.25;11.68;;;;;;;4.11;68.81;100919.51;1786180;79;21507;-75
2021/01/08 09:10:33;;;;;;;12.82;9.98;;;;;;;4.07;69.03;100923.08;1786202;79;20962;-75
2021/01/08 09:13:13;;;;;;;14.38;9.43;;;;;;;4.04;69.28;100924.02;1785862;79;21000;-74
2021/01/08 09:16:10;;;;;;;14.75;11.45;;;;;;;4.02;69.18;100920.61;1817731;77;20934;-73
2021/01/08 09:19:02;;;;;;;18.35;14.53;;;;;;;4.02;69.22;100930.16;1786285;79;20934;-76
2021/01/08 09:21:32;;;;;;;19.37;13.88;;;;;;;4.04;69.59;100921.87;1784895;79;21109;-76
2021/01/08 09:24:03;;;;;;;15.00;11.28;;;;;;;4.09;69.50;100910.91;1784863;79;21435;-74
2021/01/08 09:26:32;;;;;;;16.35;13.25;;;;;;;4.11;69.36;100904.81;1786330;79;21455;-75
2021/01/08 09:29:00;;;;;;;9.68;8.73;;;;;;;4.13;69.06;100906.05;1756105;79;20911;-75
2021/01/08 09:31:41;;;;;;;14.25;9.78;;;;;;;4.08;68.79;100904.87;1817802;78;20942;-74
2021/01/08 09:34:18;;;;;;;14.38;11.68;;;;;;;4.02;68.83;100905.50;1786320;79;21487;-76
2021/01/08 09:36:47;;;;;;;13.95;10.15;;;;;;;3.98;69.00;100903.88;1786264;79;20996;-76
2021/01/08 09:39:16;;;;;;;11.53;8.98;;;;;;;3.94;68.79;100899.24;1784640;79;20903;-75
2021/01/08 09:41:45;;;;;;;11.40;9.30;;;;;;;3.92;68.87;100899.27;1785547;79;20911;-80
2021/01/08 09:44:15;;;;;;;13.03;10.88;;;;;;;3.92;69.07;100895.38;1817797;78;21364;-77
2021/01/08 09:46:56;;;;;;;79.17;44.10;;;;;;;3.97;69.25;100899.59;1786474;79;20962;-79
2021/01/08 09:49:29;;;;;;;14.90;10.60;;;;;;;4.04;69.35;100890.73;1786633;79;21254;-77
2021/01/08 09:52:01;;;;;;;13.18;10.03;;;;;;;4.15;68.98;100885.63;1778662;79;20971;-77
2021/01/08 09:54:50;;;;;;;93.55;45.43;;;;;;;4.27;68.29;100880.55;1785378;79;21029;-77
2021/01/08 09:57:35;;;;;;;15.25;12.05;;;;;;;4.33;68.39;100879.05;1787992;79;21052;-77
2021/01/08 10:00:08;;;;;;;12.65;10.45;;;;;;;4.39;68.03;100884.52;1788945;79;20931;-78
2021/01/08 10:02:43;;;;;;;13.30;9.10;;;;;;;4.45;68.15;100884.80;1785829;79;21165;-78
2021/01/08 10:05:32;;;;;;;15.05;11.12;;;;;;;4.52;68.10;100881.95;1795462;78;21017;-78
2021/01/08 10:08:04;;;;;;;14.65;10.75;;;;;;;4.59;68.14;100877.41;1796062;78;21001;-78
2021/01/08 10:10:37;;;;;;;17.30;11.05;;;;;;;4.63;67.87;100873.83;1795676;78;21036;-78
2021/01/08 10:13:13;;;;;;;12.55;10.60;;;;;;;4.65;67.82;100877.69;1795909;78;21002;-79
2021/01/08 10:15:49;;;;;;;16.77;12.90;;;;;;;4.67;67.92;100875.44;1791328;78;21176;-81
2021/01/08 10:18:25;;;;;;;13.20;11.22;;;;;;;4.72;68.01;100873.53;1796261;78;21698;-80
2021/01/08 10:21:06;;;;;;;30.12;17.65;;;;;;;4.77;68.20;100880.73;1795022;78;21527;-78
2021/01/08 10:23:42;;;;;;;16.35;12.10;;;;;;;4.86;68.08;100874.84;1796187;78;21017;-80
2021/01/08 10:26:17;;;;;;;10.68;8.65;;;;;;;4.92;68.16;100879.39;1796103;78;21006;-80
2021/01/08 10:28:51;;;;;;;12.63;10.00;;;;;;;4.97;67.43;100869.69;1823652;77;20950;-79
2021/01/08 10:31:21;;;;;;;12.75;10.32;;;;;;;5.04;67.41;100874.70;1794813;78;21033;-80
2021/01/08 10:33:53;;;;;;;12.68;9.78;;;;;;;5.11;67.06;100886.16;1794842;78;20994;-76
2021/01/08 10:36:23;;;;;;;11.30;9.48;;;;;;;5.11;66.64;100887.45;1796913;78;20935;-77
2021/01/08 10:38:53;;;;;;;10.93;8.45;;;;;;;5.12;66.38;100879.20;1794727;78;20982;-77
2021/01/08 10:41:21;;;;;;;15.50;11.43;;;;;;;5.12;65.86;100874.84;1794882;78;21469;-76
2021/01/08 10:43:52;;;;;;;12.33;8.53;;;;;;;5.09;65.86;100870.19;1795525;78;21041;-84
2021/01/08 10:46:23;;;;;;;12.53;8.33;;;;;;;5.08;65.57;100868.50;1823806;77;21008;-76
2021/01/08 10:48:52;;;;;;;11.28;9.40;;;;;;;5.02;65.36;100869.99;1794830;78;21356;-77
2021/01/08 10:51:29;;;;;;;15.30;10.05;;;;;;;4.95;65.60;100863.69;1794718;78;21550;-78
2021/01/08 10:54:03;;;;;;;9.25;7.50;;;;;;;4.92;65.57;100852.11;1823806;78;22123;-79
2021/01/08 10:56:32;;;;;;;12.55;9.25;;;;;;;4.90;65.36;100847.87;1794182;78;21001;-79
2021/01/08 10:59:02;;;;;;;11.00;8.08;;;;;;;4.89;65.56;100848.75;1794800;78;20978;-77
2021/01/08 11:01:43;;;;;;;9.75;7.72;;;;;;;4.90;65.81;100850.47;1823493;78;20970;-79
2021/01/08 11:04:15;;;;;;;12.63;8.88;;;;;;;4.93;65.98;100847.30;1825870;78;20894;-79
2021/01/08 11:06:45;;;;;;;15.40;11.08;;;;;;;5.01;66.03;100851.41;1800457;78;21093;-81
2021/01/08 11:09:17;;;;;;;15.40;11.70;;;;;;;5.08;66.03;100846.41;1801693;78;20961;-80
2021/01/08 11:11:46;;;;;;;11.15;9.40;;;;;;;5.17;66.04;100846.94;1801933;78;21075;-87
2021/01/08 11:14:16;;;;;;;13.00;9.30;;;;;;;5.24;65.91;100845.43;1800704;78;20935;-81
2021/01/08 11:16:46;;;;;;;15.03;10.00;;;;;;;5.27;65.39;100846.19;1800546;78;20922;-81
2021/01/08 11:19:27;;;;;;;13.18;9.28;;;;;;;5.28;65.35;100851.77;1801916;78;21984;-80
2021/01/08 11:22:10;;;;;;;13.85;10.50;;;;;;;5.27;65.14;100850.09;1799438;78;21399;-79
2021/01/08 11:24:40;;;;;;;12.37;10.82;;;;;;;5.23;65.50;100849.79;1773954;78;21080;-77
2021/01/08 11:27:08;;;;;;;13.48;10.55;;;;;;;5.21;65.92;100841.65;1801693;78;20950;-77
2021/01/08 11:29:38;;;;;;;12.50;10.03;;;;;;;5.16;66.06;100845.70;1829511;77;20930;-79
2021/01/08 11:32:09;;;;;;;12.85;9.95;;;;;;;5.10;66.15;100846.75;1801964;78;21020;-77
2021/01/08 11:34:40;;;;;;;14.70;11.22;;;;;;;5.06;66.33;100844.30;1829453;78;20997;-78
2021/01/08 11:37:13;;;;;;;13.88;11.15;;;;;;;5.04;66.71;100850.00;1829705;78;21066;-78
2021/01/08 11:39:56;;;;;;;12.80;9.75;;;;;;;5.03;66.76;100850.92;1801916;78;21388;-80
2021/01/08 11:42:48;;;;;;;16.37;12.35;;;;;;;5.04;66.90;100848.70;1829521;77;20994;-81
2021/01/08 11:45:28;;;;;;;12.95;10.40;;;;;;;5.06;67.31;100858.60;1828054;77;21005;-81
2021/01/08 11:48:01;;;;;;;13.25;10.72;;;;;;;5.11;67.30;100848.47;1801667;78;21005;-82
2021/01/08 11:50:39;;;;;;;13.62;10.65;;;;;;;5.19;66.97;100854.69;1829330;78;20997;-79
2021/01/08 11:53:10;;;;;;;15.83;10.23;;;;;;;5.22;66.78;100851.97;1778717;78;21030;-78